Main page
METAR-TAF:

METAR-TAF

Airports :

Federico Fellini International Airport

Rimini, Italy

latitude: 44-02N, longitude: 012-37E, elevation: 12 m

Current weather observation

The report was made 42 minutes ago, at 00:50 UTC
Wind 3 kt from the South/Southeast, varying between East and South/Southwest
Temperature 13°C
Humidity 77%
Pressure 1004 hPa
Visibility 10 km or more

METAR: LIPR 150050Z AUTO 15003KT 100V210 9999 SCT050/// BKN180/// 13/09 Q1004

Time: 02:32 (01:32 UTC)

Forecast

The report was made 2 hours and 32 minutes ago, at 23:00 UTC
Forecast valid from 15 at 00 UTC to 15 at 09 UTC
Wind 10 kt from the South/Southeast
Visibility 10 km or more
Scattered clouds at a height of 2000 ft
Broken clouds at a height of 5000 ft

TAF: LIPR 142300Z 1500/1509 16010KT 9999 SCT020 BKN050

Weather observations and forecasts of more than 4000 airports (METAR and TAF reports).

The available stations are represented by yellow and red dots on the map.

Hover mouse over dot to see the name of the station.

Then click to see weather observations and forecasts.

To change the map : click on the green buttons with a black cross to zoom in, on the green button with a dash to zoom out, or on the green arrows for adjacent maps.


METAR-TAF: